Tea, South Dakota
Current Conditions -  °F | °C
As of 9:56 PM on Friday 24 Oct 2014 (Local Time) from KFSD Reporting Station
Clear Clear  
Wind Chill: 12°   Ceiling: Unl
Heat Index: 12°   Visibility: 10mi
Dew Point:   Wind: 3mph
Humidity: 66%   Direction: 200°SSW
Pressure: 29.96"   Gusts: NA
Location:  43.45°N, 96.84°W
Report Text: KFSD 250256Z 20003KT 10SM CLR 12/06 A2996 RMK AO2 SLP149 T01220061 51010
Loading
Personal Weather Stations






























Interactive Weather Map
Tropical Storm Tracking
New forecast layout! Learn more

10-Day Weather Forecast

Advertisements
Track Severe Weather on mobile